Time;durP1;ratioP1;P1;durP2;ratioP2;P2;SDS_P1;SDS_P2;PMS_P1;PMS_P2;Temp;Humidity;BMP_temperature;BMP_pressure;BME280_temperature;BME280_humidity;BME280_pressure;Samples;Min_cycle;Max_cycle;Signal;HPM_P1;HPM_P2
2024/02/07 00:00:19;;;;;;;2.50;2.30;;;8.10;1.00;;;;;;4998284;28;20462;-80
2024/02/07 00:02:48;;;;;;;3.13;2.27;;;8.20;1.00;;;;;;4996057;28;20468;-77
2024/02/07 00:05:17;;;;;;;1.90;1.80;;;8.20;1.00;;;;;;4994044;28;21128;-77
2024/02/07 00:07:46;;;;;;;1.87;1.77;;;8.20;1.00;;;;;;4996260;28;20446;-78
2024/02/07 00:10:14;;;;;;;2.90;2.60;;;8.20;1.00;;;;;;4994498;28;20451;-78
2024/02/07 00:12:42;;;;;;;6.43;1.93;;;8.20;1.00;;;;;;4998619;28;20825;-77
2024/02/07 00:15:11;;;;;;;3.60;3.27;;;8.20;1.00;;;;;;4996467;28;20513;-77
2024/02/07 00:17:39;;;;;;;2.40;2.17;;;8.10;99.90;;;;;;4998401;28;20478;-76
2024/02/07 00:20:08;;;;;;;3.50;3.20;;;8.10;1.00;;;;;;4996919;28;20462;-76
2024/02/07 00:22:40;;;;;;;2.50;2.30;;;8.20;99.90;;;;;;4994187;28;20508;-80
2024/02/07 00:25:09;;;;;;;2.60;2.40;;;8.10;99.90;;;;;;4997856;28;20707;-77
2024/02/07 00:27:37;;;;;;;2.30;2.20;;;8.10;99.90;;;;;;4995736;28;20492;-77
2024/02/07 00:30:06;;;;;;;3.27;2.07;;;8.10;99.90;;;;;;4997819;28;20458;-77
2024/02/07 00:32:34;;;;;;;3.13;2.90;;;8.10;1.00;;;;;;4993519;28;20473;-79
2024/02/07 00:35:03;;;;;;;2.57;2.20;;;8.10;1.00;;;;;;4999888;28;20477;-78
2024/02/07 00:37:31;;;;;;;3.10;2.80;;;8.10;99.90;;;;;;4994659;28;20478;-78
2024/02/07 00:40:01;;;;;;;2.67;2.40;;;8.10;1.00;;;;;;4997176;28;20524;-79
2024/02/07 00:42:29;;;;;;;3.17;2.20;;;8.00;99.90;;;;;;4997695;28;20461;-79
2024/02/07 00:44:57;;;;;;;2.33;2.20;;;7.90;99.90;;;;;;4997091;28;20470;-79
2024/02/07 00:47:25;;;;;;;3.27;2.30;;;8.00;1.00;;;;;;4999219;28;21045;-82
2024/02/07 00:49:53;;;;;;;2.70;2.10;;;7.90;99.90;;;;;;4998619;28;20454;-80
2024/02/07 00:52:23;;;;;;;4.13;2.40;;;8.00;99.90;;;;;;4999945;28;20459;-79
2024/02/07 00:54:51;;;;;;;2.53;2.23;;;8.00;1.00;;;;;;5000722;28;20473;-79
2024/02/07 00:57:21;;;;;;;2.43;2.30;;;8.00;99.90;;;;;;4999734;28;20459;-78
2024/02/07 00:59:49;;;;;;;1.90;1.80;;;8.00;1.00;;;;;;5002977;28;20453;-81
2024/02/07 01:02:17;;;;;;;2.30;2.07;;;7.90;99.90;;;;;;5002518;28;20450;-78
2024/02/07 01:04:45;;;;;;;2.50;2.23;;;7.90;99.90;;;;;;5000133;28;20686;-78
2024/02/07 01:07:14;;;;;;;2.30;2.20;;;8.00;99.90;;;;;;4994818;28;20455;-78
2024/02/07 01:09:42;;;;;;;2.83;2.40;;;7.90;99.90;;;;;;4997706;28;20565;-79
2024/02/07 01:12:10;;;;;;;3.13;2.10;;;8.00;1.00;;;;;;4997458;28;20454;-78
2024/02/07 01:14:40;;;;;;;2.87;2.67;;;8.00;1.00;;;;;;4998315;28;21102;-78
2024/02/07 01:17:08;;;;;;;5.43;2.40;;;7.90;1.00;;;;;;5000733;28;20523;-77
2024/02/07 01:19:36;;;;;;;2.43;2.23;;;7.90;1.00;;;;;;5003992;28;20557;-77
2024/02/07 01:22:05;;;;;;;2.50;2.30;;;7.90;1.00;;;;;;4990844;28;20474;-77
2024/02/07 01:24:34;;;;;;;2.60;2.40;;;7.90;1.00;;;;;;5000688;28;20580;-78
2024/02/07 01:27:04;;;;;;;2.87;2.77;;;7.90;1.00;;;;;;4992159;28;20755;-79
2024/02/07 01:29:34;;;;;;;2.80;2.60;;;7.90;1.00;;;;;;5001283;28;20446;-79
2024/02/07 01:32:05;;;;;;;2.00;1.90;;;8.00;1.00;;;;;;4998771;28;20467;-77
2024/02/07 01:34:33;;;;;;;4.63;2.90;;;8.00;1.00;;;;;;4998168;28;20569;-77
2024/02/07 01:37:01;;;;;;;2.70;2.23;;;8.00;1.00;;;;;;4999281;28;20877;-78
2024/02/07 01:39:29;;;;;;;3.87;2.20;;;8.10;1.00;;;;;;4996943;28;20488;-79
2024/02/07 01:42:01;;;;;;;2.23;2.03;;;8.10;1.00;;;;;;4991143;28;20557;-77
2024/02/07 01:44:30;;;;;;;2.90;2.07;;;7.80;1.00;;;;;;4988379;28;20470;-79
2024/02/07 01:47:12;;;;;;;2.70;2.10;;;8.00;1.00;;;;;;4991000;28;20449;-78
2024/02/07 01:49:47;;;;;;;2.80;2.30;;;8.00;1.00;;;;;;4990003;28;20450;-78
2024/02/07 01:52:18;;;;;;;2.50;2.30;;;8.00;1.00;;;;;;4977674;28;20457;-76
2024/02/07 01:54:47;;;;;;;2.10;2.00;;;8.00;1.00;;;;;;4978322;28;20493;-78
2024/02/07 01:57:15;;;;;;;2.70;2.33;;;8.00;1.00;;;;;;4995523;28;20465;-78
2024/02/07 01:59:44;;;;;;;2.40;2.20;;;8.10;1.00;;;;;;4994950;28;20512;-77
2024/02/07 02:02:13;;;;;;;3.40;2.90;;;8.10;1.00;;;;;;4995224;28;20460;-77
2024/02/07 02:04:43;;;;;;;2.37;2.17;;;8.10;1.00;;;;;;4994634;28;20482;-79
2024/02/07 02:07:11;;;;;;;4.10;2.83;;;8.10;1.00;;;;;;4994730;28;20460;-77
2024/02/07 02:09:40;;;;;;;2.77;2.13;;;8.20;1.00;;;;;;4993855;28;20458;-77
2024/02/07 02:12:10;;;;;;;2.33;2.13;;;8.10;1.00;;;;;;4994100;28;22712;-78
2024/02/07 02:14:38;;;;;;;2.33;2.13;;;8.20;1.00;;;;;;4976507;28;20612;-80
2024/02/07 02:17:07;;;;;;;2.47;2.27;;;8.00;1.00;;;;;;4998053;28;20468;-77
2024/02/07 02:19:36;;;;;;;2.43;2.27;;;8.10;1.00;;;;;;4995401;28;20521;-79
2024/02/07 02:22:22;;;;;;;2.47;2.27;;;8.10;1.00;;;;;;5000650;28;21055;-79
2024/02/07 02:25:17;;;;;;;3.83;2.50;;;8.20;1.00;;;;;;4996500;28;21047;-79
2024/02/07 02:27:55;;;;;;;2.00;1.70;;;8.20;1.00;;;;;;4995402;28;20450;-80
2024/02/07 02:30:33;;;;;;;2.90;2.33;;;8.20;7.70;;;;;;4992803;28;20505;-79
2024/02/07 02:33:08;;;;;;;1.90;1.80;;;8.20;42.80;;;;;;4996799;28;20944;-77
2024/02/07 02:35:43;;;;;;;2.10;2.00;;;8.10;1.00;;;;;;5002554;28;20484;-78
2024/02/07 02:38:13;;;;;;;2.10;2.00;;;8.10;21.60;;;;;;5002785;28;20465;-78
2024/02/07 02:40:41;;;;;;;2.97;2.20;;;8.10;1.00;;;;;;5000602;28;20813;-79
2024/02/07 02:43:09;;;;;;;3.33;2.20;;;8.20;1.00;;;;;;4995948;28;20452;-80
2024/02/07 02:45:40;;;;;;;3.10;2.00;;;8.10;1.00;;;;;;4997033;28;20512;-82
2024/02/07 02:48:09;;;;;;;3.63;2.00;;;8.20;1.00;;;;;;4989833;28;20950;-79
2024/02/07 02:50:41;;;;;;;2.60;2.40;;;8.20;1.00;;;;;;5000687;28;20458;-77
2024/02/07 02:53:09;;;;;;;5.20;2.53;;;8.30;99.90;;;;;;4995823;28;20466;-77
2024/02/07 02:55:37;;;;;;;5.33;2.20;;;8.20;1.00;;;;;;4999671;28;20477;-76
2024/02/07 02:58:06;;;;;;;2.47;2.37;;;8.20;99.90;;;;;;4992634;28;20543;-78
2024/02/07 03:00:34;;;;;;;2.30;2.10;;;8.20;24.50;;;;;;4994694;28;20474;-80
2024/02/07 03:03:04;;;;;;;2.33;2.10;;;8.30;99.90;;;;;;4994963;28;20460;-80
2024/02/07 03:05:38;;;;;;;2.67;2.17;;;8.20;44.80;;;;;;4993975;28;20548;-80
2024/02/07 03:08:16;;;;;;;2.03;1.90;;;8.30;99.90;;;;;;4994349;28;21005;-79
2024/02/07 03:10:44;;;;;;;3.57;3.27;;;8.30;52.50;;;;;;4993483;28;20465;-78
2024/02/07 03:13:13;;;;;;;2.37;2.17;;;8.20;99.90;;;;;;4994529;28;20454;-80
2024/02/07 03:15:41;;;;;;;3.20;2.23;;;8.20;99.90;;;;;;4998186;28;20483;-78
2024/02/07 03:18:11;;;;;;;3.37;2.03;;;8.20;99.90;;;;;;4995772;28;20458;-79
2024/02/07 03:20:41;;;;;;;2.30;2.20;;;8.30;99.90;;;;;;4993341;28;21213;-77
2024/02/07 03:23:09;;;;;;;2.83;2.10;;;8.20;1.00;;;;;;4998266;28;20465;-79
2024/02/07 03:25:37;;;;;;;2.10;2.00;;;8.20;46.50;;;;;;5000920;28;20536;-80
2024/02/07 03:28:10;;;;;;;2.43;2.23;;;8.20;1.00;;;;;;4994935;28;20469;-78
2024/02/07 03:30:38;;;;;;;2.63;2.20;;;8.30;1.00;;;;;;4998075;28;20462;-78
2024/02/07 03:33:07;;;;;;;1.97;1.77;;;8.40;1.00;;;;;;4998900;28;20479;-76
2024/02/07 03:35:37;;;;;;;2.33;2.13;;;8.40;1.00;;;;;;4999308;28;21308;-77
2024/02/07 03:38:05;;;;;;;3.03;2.63;;;8.40;1.00;;;;;;4994470;28;20441;-77
2024/02/07 03:40:33;;;;;;;3.57;2.03;;;8.40;1.00;;;;;;4999323;28;20462;-80
2024/02/07 03:43:03;;;;;;;2.00;1.90;;;8.40;1.00;;;;;;4998342;28;20555;-80
2024/02/07 03:45:33;;;;;;;2.50;2.30;;;8.50;1.00;;;;;;4999583;28;20502;-78
2024/02/07 03:48:02;;;;;;;2.23;2.13;;;8.50;1.00;;;;;;5000981;28;20458;-78
2024/02/07 03:50:31;;;;;;;2.10;2.00;;;8.50;95.90;;;;;;4997759;28;20462;-79
2024/02/07 03:53:03;;;;;;;2.40;2.20;;;8.50;99.90;;;;;;4997535;28;20893;-78
2024/02/07 03:55:32;;;;;;;3.43;2.00;;;8.50;1.00;;;;;;4981209;28;21108;-78
2024/02/07 03:58:00;;;;;;;2.40;2.13;;;8.50;11.70;;;;;;4991252;28;20462;-78
2024/02/07 04:00:28;;;;;;;2.00;1.90;;;8.50;1.00;;;;;;4987419;28;20531;-78
2024/02/07 04:02:57;;;;;;;2.63;2.53;;;8.60;99.90;;;;;;4992490;28;20470;-79
2024/02/07 04:05:25;;;;;;;2.70;2.50;;;8.50;1.00;;;;;;4990619;28;20498;-79
2024/02/07 04:07:55;;;;;;;2.77;2.57;;;8.50;1.00;;;;;;4987182;28;21532;-78
2024/02/07 04:10:24;;;;;;;2.50;2.30;;;8.50;1.00;;;;;;4990084;28;20482;-77
2024/02/07 05:16:14;;;;;;;3.10;2.90;;;8.60;57.00;;;;;;5001036;28;20752;-77
2024/02/07 05:18:43;;;;;;;4.43;2.70;;;8.70;99.90;;;;;;4997877;28;20530;-79
2024/02/07 05:21:13;;;;;;;2.67;2.57;;;8.70;99.90;;;;;;4992593;28;20566;-81
2024/02/07 05:23:42;;;;;;;3.60;3.30;;;8.60;99.90;;;;;;4993510;28;20484;-77
2024/02/07 05:26:10;;;;;;;4.53;2.63;;;8.60;99.90;;;;;;4989950;28;20485;-76
2024/02/07 05:28:42;;;;;;;3.10;2.90;;;8.60;99.90;;;;;;4994701;28;20447;-77
2024/02/07 05:31:10;;;;;;;4.23;3.20;;;8.50;99.90;;;;;;4996062;28;20458;-77
2024/02/07 05:33:41;;;;;;;2.53;2.33;;;8.50;99.90;;;;;;4998995;28;20465;-82
2024/02/07 05:36:09;;;;;;;2.40;2.30;;;8.50;99.90;;;;;;4997358;28;20514;-78
2024/02/07 05:38:38;;;;;;;3.20;2.93;;;8.50;80.40;;;;;;4996877;28;20465;-80
2024/02/07 05:41:06;;;;;;;3.10;2.90;;;8.50;99.90;;;;;;4995185;28;20492;-78
2024/02/07 05:43:34;;;;;;;3.13;2.93;;;8.50;99.90;;;;;;4996188;28;20535;-79
2024/02/07 05:46:02;;;;;;;3.43;3.23;;;8.50;99.90;;;;;;4994394;28;20484;-79
2024/02/07 05:48:30;;;;;;;3.27;2.97;;;8.50;1.00;;;;;;4992106;28;20548;-78
2024/02/07 05:51:00;;;;;;;2.60;2.37;;;8.50;99.90;;;;;;4995039;28;20441;-77
2024/02/07 05:53:28;;;;;;;3.00;2.70;;;8.50;1.00;;;;;;4995451;28;20458;-78
2024/02/07 05:55:56;;;;;;;2.67;2.47;;;8.50;1.00;;;;;;4998453;28;20469;-77
2024/02/07 05:58:39;;;;;;;2.50;2.30;;;8.50;99.90;;;;;;4979226;28;20485;-81
2024/02/07 06:01:08;;;;;;;2.80;2.70;;;8.50;99.90;;;;;;4993199;28;20478;-78
2024/02/07 06:03:36;;;;;;;2.87;2.67;;;8.60;99.90;;;;;;5003369;28;20450;-79
2024/02/07 06:06:07;;;;;;;2.80;2.60;;;8.70;1.00;;;;;;4989987;28;20481;-77
2024/02/07 06:08:35;;;;;;;3.40;3.10;;;8.70;99.90;;;;;;4991355;28;20447;-80
2024/02/07 06:11:05;;;;;;;2.73;2.47;;;8.60;99.90;;;;;;4993599;28;20199;-79
2024/02/07 06:13:33;;;;;;;3.00;2.80;;;8.70;99.90;;;;;;4994511;28;20450;-76
2024/02/07 06:16:01;;;;;;;3.27;2.97;;;8.70;1.00;;;;;;4992864;28;20603;-79
2024/02/07 06:18:29;;;;;;;3.75;3.45;;;8.70;99.90;;;;;;4989250;28;20453;-81
2024/02/07 06:20:58;;;;;;;3.50;3.20;;;8.50;99.90;;;;;;4996087;28;20219;-78
2024/02/07 06:23:27;;;;;;;3.60;3.30;;;8.60;1.00;;;;;;4998045;28;20450;-78
2024/02/07 06:25:56;;;;;;;6.33;3.40;;;8.50;99.90;;;;;;4988924;28;20473;-77
2024/02/07 06:28:24;;;;;;;3.30;3.10;;;8.50;99.90;;;;;;4991493;28;20464;-77
2024/02/07 06:30:53;;;;;;;3.55;3.35;;;8.60;99.90;;;;;;4992141;28;20500;-79
2024/02/07 06:33:21;;;;;;;3.13;2.93;;;8.60;99.90;;;;;;4995874;28;21027;-79
2024/02/07 06:35:49;;;;;;;2.90;2.80;;;8.60;99.90;;;;;;4999391;28;20477;-80
2024/02/07 06:38:17;;;;;;;3.80;3.50;;;8.60;99.90;;;;;;4998385;28;20469;-79
2024/02/07 06:40:47;;;;;;;4.03;3.47;;;8.70;99.90;;;;;;4999251;28;20469;-78
2024/02/07 06:43:15;;;;;;;4.00;3.70;;;8.70;99.90;;;;;;4999211;28;20445;-77
2024/02/07 06:45:43;;;;;;;4.10;3.10;;;8.60;1.00;;;;;;4996751;28;21041;-77
2024/02/07 06:48:11;;;;;;;3.27;2.97;;;8.50;99.90;;;;;;4995707;28;20454;-79
2024/02/07 06:50:39;;;;;;;3.07;2.47;;;8.60;99.90;;;;;;4993723;28;20460;-79
2024/02/07 06:53:07;;;;;;;3.40;3.10;;;8.60;99.90;;;;;;4991277;28;20589;-80
2024/02/07 06:55:41;;;;;;;3.27;3.00;;;8.60;99.90;;;;;;4996152;28;20482;-78
2024/02/07 06:58:10;;;;;;;3.20;2.87;;;8.70;99.90;;;;;;4997952;28;20473;-79
2024/02/07 07:00:39;;;;;;;4.90;3.43;;;8.70;92.10;;;;;;4999039;28;20459;-79
2024/02/07 07:03:07;;;;;;;4.80;3.33;;;8.70;99.90;;;;;;4998393;28;20469;-78
2024/02/07 07:05:35;;;;;;;2.93;2.70;;;8.70;99.90;;;;;;4997437;28;20465;-79
2024/02/07 07:08:03;;;;;;;4.10;3.00;;;8.80;99.90;;;;;;4995890;28;20457;-78
2024/02/07 07:10:35;;;;;;;3.45;3.17;;;8.80;99.90;;;;;;4993606;28;20545;-78
2024/02/07 07:13:03;;;;;;;3.13;2.83;;;8.80;99.90;;;;;;4980878;28;20314;-80
2024/02/07 07:15:33;;;;;;;3.23;2.80;;;8.80;99.90;;;;;;4996722;28;20492;-78
2024/02/07 07:18:01;;;;;;;3.13;2.93;;;8.80;27.20;;;;;;4996318;28;20804;-78
2024/02/07 07:20:31;;;;;;;3.50;3.30;;;8.80;99.90;;;;;;4989543;28;20451;-79
2024/02/07 07:22:59;;;;;;;4.97;3.30;;;8.90;73.40;;;;;;4998818;28;20553;-78
2024/02/07 07:25:42;;;;;;;3.97;3.57;;;8.80;1.00;;;;;;4993880;28;20512;-79
2024/02/07 07:28:11;;;;;;;3.20;3.00;;;8.80;99.90;;;;;;4992713;28;20512;-79
2024/02/07 07:30:40;;;;;;;3.80;3.50;;;8.80;1.00;;;;;;4993573;28;21156;-79
2024/02/07 07:33:09;;;;;;;3.37;3.17;;;8.80;1.00;;;;;;4995982;28;20532;-79
2024/02/07 07:35:37;;;;;;;3.20;3.00;;;8.90;99.90;;;;;;4993564;28;20999;-79
2024/02/07 07:38:06;;;;;;;3.10;2.90;;;8.90;1.00;;;;;;4996207;28;20443;-79
2024/02/07 07:40:39;;;;;;;6.30;3.10;;;8.90;1.00;;;;;;4997294;28;20458;-77
2024/02/07 07:43:08;;;;;;;2.93;2.73;;;8.90;99.90;;;;;;4992406;28;20449;-78
2024/02/07 07:45:36;;;;;;;4.57;2.80;;;8.90;52.90;;;;;;4997396;28;20990;-78
2024/02/07 07:48:06;;;;;;;3.50;3.20;;;9.00;99.90;;;;;;4995360;28;20446;-78
2024/02/07 07:50:35;;;;;;;3.87;3.57;;;8.90;31.40;;;;;;4992901;28;20470;-79
2024/02/07 07:53:03;;;;;;;3.40;2.77;;;9.00;56.20;;;;;;4998427;28;20439;-78
2024/02/07 07:55:31;;;;;;;5.97;3.33;;;8.90;1.00;;;;;;4998612;28;20469;-79
2024/02/07 07:58:00;;;;;;;3.73;3.53;;;9.00;47.80;;;;;;4997331;28;20465;-78
2024/02/07 08:00:28;;;;;;;3.57;3.23;;;9.00;99.90;;;;;;4990978;28;20979;-77
2024/02/07 08:02:56;;;;;;;3.67;3.37;;;9.00;1.00;;;;;;4997771;28;20557;-77
2024/02/07 08:05:27;;;;;;;3.97;3.20;;;9.00;82.50;;;;;;4995084;28;20549;-77
2024/02/07 08:07:56;;;;;;;4.10;3.80;;;9.10;99.90;;;;;;4997004;28;20454;-77
2024/02/07 08:10:24;;;;;;;3.33;3.03;;;9.10;99.90;;;;;;4997613;28;20451;-77
2024/02/07 08:12:53;;;;;;;3.50;3.20;;;9.10;99.90;;;;;;5012062;28;20974;-79
2024/02/07 08:15:21;;;;;;;3.27;3.07;;;9.10;1.00;;;;;;4995899;28;20640;-77
2024/02/07 08:17:50;;;;;;;3.47;3.17;;;9.20;1.00;;;;;;4992015;28;20454;-76
2024/02/07 08:20:22;;;;;;;3.50;3.20;;;9.10;1.00;;;;;;4991451;28;21221;-78
2024/02/07 08:22:52;;;;;;;4.23;3.47;;;9.10;4.20;;;;;;4992098;28;20486;-79
2024/02/07 08:25:21;;;;;;;3.20;2.90;;;9.10;1.00;;;;;;4996098;28;20486;-78
2024/02/07 08:27:50;;;;;;;4.30;3.47;;;9.10;1.00;;;;;;4997292;28;21002;-77
2024/02/07 08:30:20;;;;;;;3.30;3.10;;;9.10;1.00;;;;;;4993150;28;20462;-77
2024/02/07 08:32:50;;;;;;;4.47;3.70;;;9.10;1.00;;;;;;4997834;28;20439;-77
2024/02/07 08:35:19;;;;;;;5.23;3.27;;;9.20;99.90;;;;;;4995431;28;20544;-78
2024/02/07 08:37:47;;;;;;;3.77;3.30;;;9.20;1.00;;;;;;4992067;28;20478;-78
2024/02/07 08:40:17;;;;;;;4.07;2.93;;;9.20;1.00;;;;;;4992208;28;20561;-78
2024/02/07 08:42:45;;;;;;;6.23;2.97;;;9.20;1.00;;;;;;4996834;28;21005;-79
2024/02/07 08:45:14;;;;;;;4.70;3.37;;;9.30;1.00;;;;;;4996322;28;20487;-78
2024/02/07 08:47:42;;;;;;;3.73;2.83;;;9.30;1.00;;;;;;4993997;28;20465;-77
2024/02/07 08:50:11;;;;;;;5.70;4.55;;;9.30;6.10;;;;;;4996557;28;20442;-77
2024/02/07 08:52:40;;;;;;;4.10;3.80;;;9.20;1.00;;;;;;4995905;28;20199;-78
2024/02/07 08:55:09;;;;;;;3.27;3.10;;;9.30;99.90;;;;;;4993624;28;20477;-76
2024/02/07 08:57:40;;;;;;;3.20;2.90;;;9.30;26.00;;;;;;4992924;28;20533;-77
2024/02/07 09:00:10;;;;;;;3.57;3.23;;;9.30;99.90;;;;;;4992846;28;20513;-76
2024/02/07 09:02:38;;;;;;;3.70;3.40;;;9.30;50.00;;;;;;4999791;28;20508;-77
2024/02/07 09:05:07;;;;;;;2.67;2.43;;;9.30;99.90;;;;;;5001076;28;20494;-77
2024/02/07 09:07:35;;;;;;;3.40;2.80;;;9.40;99.90;;;;;;4998980;28;20458;-77
2024/02/07 09:10:04;;;;;;;4.20;3.80;;;9.40;99.90;;;;;;5002184;28;20461;-78
2024/02/07 09:12:32;;;;;;;4.70;3.30;;;9.30;99.90;;;;;;5001015;28;20458;-76
2024/02/07 09:15:02;;;;;;;3.73;3.43;;;9.30;70.90;;;;;;4998418;28;20499;-77
2024/02/07 09:17:31;;;;;;;3.70;3.40;;;9.40;99.90;;;;;;4999932;28;20453;-77
2024/02/07 09:20:00;;;;;;;3.90;3.70;;;9.40;99.90;;;;;;5001581;28;20449;-76
2024/02/07 09:22:28;;;;;;;3.27;3.07;;;9.40;99.90;;;;;;4999962;28;20483;-78
2024/02/07 09:24:57;;;;;;;8.97;4.30;;;9.40;99.90;;;;;;4996279;28;20596;-78
2024/02/07 09:27:25;;;;;;;3.40;3.10;;;9.40;46.20;;;;;;4998522;28;20458;-76
2024/02/07 09:29:56;;;;;;;3.47;3.17;;;9.50;99.90;;;;;;5000481;28;20462;-77
2024/02/07 09:32:41;;;;;;;4.33;3.40;;;9.50;99.90;;;;;;4998035;28;20450;-77
2024/02/07 09:35:09;;;;;;;4.87;3.47;;;9.40;30.70;;;;;;5001218;28;20469;-79
2024/02/07 09:37:39;;;;;;;7.03;3.80;;;9.40;84.50;;;;;;4998807;28;20461;-77
2024/02/07 09:40:09;;;;;;;3.80;3.43;;;9.30;99.90;;;;;;4999550;28;20456;-76
2024/02/07 09:42:43;;;;;;;5.90;3.60;;;9.40;99.90;;;;;;4994388;28;20565;-77
2024/02/07 09:45:13;;;;;;;4.00;3.57;;;9.40;99.90;;;;;;4998267;28;20569;-77
2024/02/07 09:47:49;;;;;;;5.03;4.30;;;9.40;99.90;;;;;;4978472;28;21048;-78
2024/02/07 09:50:20;;;;;;;3.90;3.60;;;9.50;99.90;;;;;;4994777;28;20447;-78
2024/02/07 09:52:50;;;;;;;4.73;3.57;;;9.50;99.90;;;;;;5000029;28;20438;-77
2024/02/07 09:55:19;;;;;;;3.30;3.10;;;9.50;99.90;;;;;;4998401;28;20520;-76
2024/02/07 09:57:49;;;;;;;4.13;3.67;;;9.60;99.90;;;;;;4997286;28;21160;-78
2024/02/07 10:00:18;;;;;;;4.87;2.97;;;9.60;92.10;;;;;;4999350;28;20458;-79
2024/02/07 10:02:50;;;;;;;3.03;2.83;;;9.60;88.00;;;;;;4999524;28;20481;-78
2024/02/07 10:05:20;;;;;;;4.60;3.33;;;9.60;99.90;;;;;;4996398;28;20474;-77
2024/02/07 10:07:52;;;;;;;4.90;2.90;;;9.60;99.90;;;;;;4998426;28;20447;-79
2024/02/07 10:10:21;;;;;;;4.03;3.73;;;9.60;99.90;;;;;;4997561;28;20448;-79
2024/02/07 10:12:54;;;;;;;3.40;3.10;;;9.70;99.90;;;;;;4999902;28;20449;-79
2024/02/07 10:15:24;;;;;;;2.80;2.60;;;9.70;99.90;;;;;;4997834;28;20573;-80
2024/02/07 10:17:54;;;;;;;3.30;3.03;;;9.70;99.90;;;;;;4996633;28;20450;-78
2024/02/07 10:20:24;;;;;;;3.23;3.03;;;9.80;58.40;;;;;;4999375;28;20446;-78
2024/02/07 10:22:52;;;;;;;3.80;3.50;;;9.80;35.80;;;;;;4998577;28;20479;-79
2024/02/07 10:25:20;;;;;;;2.67;2.47;;;10.10;99.90;;;;;;4997975;28;20531;-78
2024/02/07 10:27:49;;;;;;;3.00;2.70;;;10.40;1.00;;;;;;4996291;28;20450;-80
2024/02/07 10:30:17;;;;;;;4.90;3.07;;;10.40;1.00;;;;;;4997927;28;20567;-77
2024/02/07 10:32:52;;;;;;;3.03;2.90;;;11.30;1.00;;;;;;4998417;28;20460;-78
2024/02/07 10:35:21;;;;;;;4.03;3.53;;;12.50;1.00;;;;;;4995676;28;20470;-78
2024/02/07 10:37:52;;;;;;;2.70;2.60;;;12.80;99.90;;;;;;4995633;28;20466;-78
2024/02/07 10:40:21;;;;;;;2.90;2.70;;;13.30;99.90;;;;;;4996189;28;20537;-77
2024/02/07 10:42:56;;;;;;;3.30;3.00;;;12.80;99.90;;;;;;4996540;28;21035;-78
2024/02/07 10:45:25;;;;;;;3.10;2.90;;;12.10;99.90;;;;;;4999407;28;20485;-78
2024/02/07 10:47:55;;;;;;;2.73;2.63;;;11.60;99.90;;;;;;4998685;28;20453;-77
2024/02/07 10:50:24;;;;;;;4.20;3.47;;;11.20;99.90;;;;;;4995472;28;20474;-79
2024/02/07 10:52:52;;;;;;;3.50;3.20;;;11.00;99.90;;;;;;4996366;28;20469;-78
2024/02/07 10:55:23;;;;;;;4.00;2.90;;;10.80;99.90;;;;;;4995874;28;20482;-77
2024/02/07 10:57:56;;;;;;;3.23;2.93;;;10.70;99.90;;;;;;4993850;28;20474;-78
2024/02/07 11:00:25;;;;;;;4.03;3.03;;;10.60;1.00;;;;;;4996005;28;20517;-78
2024/02/07 11:02:55;;;;;;;2.60;2.40;;;10.50;1.00;;;;;;4998951;28;20599;-80
2024/02/07 11:05:24;;;;;;;3.10;2.80;;;10.40;1.00;;;;;;4999208;28;20894;-78
2024/02/07 11:07:53;;;;;;;4.13;2.67;;;10.30;1.00;;;;;;4995765;28;20445;-77
2024/02/07 11:10:22;;;;;;;4.10;2.57;;;10.30;1.00;;;;;;4997767;28;21048;-77
2024/02/07 11:12:51;;;;;;;3.37;3.17;;;10.20;1.00;;;;;;4998735;28;20457;-77
2024/02/07 11:15:19;;;;;;;3.63;3.33;;;10.20;1.00;;;;;;4991023;28;20604;-78
2024/02/07 11:17:48;;;;;;;3.70;3.40;;;10.20;1.00;;;;;;4995355;28;20457;-79
2024/02/07 11:20:18;;;;;;;4.37;3.10;;;10.10;1.00;;;;;;4996823;28;22808;-79
2024/02/07 11:22:50;;;;;;;3.50;3.20;;;10.00;1.00;;;;;;4997735;28;20543;-78
2024/02/07 11:25:21;;;;;;;3.50;3.17;;;10.10;1.00;;;;;;5000632;28;20464;-78
2024/02/07 11:27:51;;;;;;;2.90;2.80;;;10.10;1.00;;;;;;4992115;28;21512;-79
2024/02/07 11:30:21;;;;;;;3.53;3.00;;;10.30;1.00;;;;;;4997645;28;20507;-78
2024/02/07 11:32:52;;;;;;;2.50;2.40;;;10.20;1.00;;;;;;4995561;28;21302;-78
2024/02/07 11:35:23;;;;;;;3.90;2.90;;;10.30;1.00;;;;;;4995884;28;20466;-78
2024/02/07 11:37:52;;;;;;;2.70;2.50;;;10.60;1.00;;;;;;4995551;28;20474;-77
2024/02/07 11:40:23;;;;;;;3.03;2.80;;;11.00;1.00;;;;;;4997672;28;20447;-78
2024/02/07 11:43:01;;;;;;;2.67;2.47;;;11.10;1.00;;;;;;4994895;28;20466;-78
2024/02/07 11:45:30;;;;;;;2.47;2.27;;;11.40;1.00;;;;;;4998019;28;20497;-77
2024/02/07 11:47:58;;;;;;;2.37;2.27;;;11.70;1.00;;;;;;4992005;28;20875;-78
2024/02/07 11:50:36;;;;;;;4.10;3.00;;;11.80;99.90;;;;;;4997722;28;20458;-78
2024/02/07 11:53:05;;;;;;;4.50;2.77;;;11.80;99.90;;;;;;4997731;28;20976;-79
2024/02/07 11:55:41;;;;;;;2.73;2.53;;;11.90;99.90;;;;;;4994935;28;20486;-79
2024/02/07 11:58:09;;;;;;;2.43;2.33;;;11.90;99.90;;;;;;4995499;28;20943;-79
2024/02/07 12:00:40;;;;;;;2.77;2.37;;;11.80;99.90;;;;;;4999028;28;20489;-78
2024/02/07 12:03:13;;;;;;;2.40;2.20;;;11.90;99.90;;;;;;4991821;28;20454;-78
2024/02/07 12:05:44;;;;;;;2.37;2.27;;;12.00;99.90;;;;;;4991887;28;21030;-77
2024/02/07 12:08:14;;;;;;;2.50;2.40;;;12.00;99.90;;;;;;4994354;28;20453;-78
2024/02/07 12:10:43;;;;;;;2.30;2.20;;;12.10;99.90;;;;;;4998014;28;20450;-77
2024/02/07 12:13:11;;;;;;;2.47;2.37;;;12.10;99.90;;;;;;4995487;28;20457;-78
2024/02/07 12:15:40;;;;;;;2.57;2.37;;;12.00;99.90;;;;;;4996485;28;20488;-77
2024/02/07 12:18:09;;;;;;;2.57;2.37;;;11.80;99.90;;;;;;4994392;28;20574;-78
2024/02/07 12:20:38;;;;;;;3.27;2.30;;;11.60;99.90;;;;;;4993361;28;20820;-78
2024/02/07 12:23:08;;;;;;;2.63;2.43;;;11.70;99.90;;;;;;4994294;28;20464;-79
2024/02/07 12:25:37;;;;;;;2.30;2.20;;;11.70;99.90;;;;;;4996123;28;20494;-79
2024/02/07 12:28:12;;;;;;;2.80;2.33;;;11.90;99.90;;;;;;4985175;28;20463;-81
2024/02/07 12:30:43;;;;;;;3.87;3.57;;;11.90;99.90;;;;;;4998914;28;20465;-80
2024/02/07 12:33:11;;;;;;;2.67;2.47;;;12.10;99.90;;;;;;5001058;28;20468;-80
2024/02/07 12:35:49;;;;;;;2.33;2.13;;;12.10;99.90;;;;;;5000518;28;20481;-82
2024/02/07 12:38:19;;;;;;;3.23;2.20;;;12.10;99.90;;;;;;4995850;28;20959;-81
2024/02/07 12:40:49;;;;;;;2.20;2.00;;;12.00;99.90;;;;;;4998787;28;20466;-81
2024/02/07 12:43:18;;;;;;;2.20;2.10;;;12.00;99.90;;;;;;4998940;28;20442;-80
2024/02/07 12:45:52;;;;;;;2.33;1.90;;;12.00;99.90;;;;;;4996366;28;20490;-80
2024/02/07 12:48:22;;;;;;;2.80;2.60;;;12.00;99.90;;;;;;4993052;28;20444;-79
2024/02/07 12:50:51;;;;;;;3.00;2.23;;;11.90;99.90;;;;;;4995754;28;20206;-80
2024/02/07 12:53:21;;;;;;;2.70;2.53;;;11.90;99.90;;;;;;4995691;28;20446;-79
2024/02/07 12:55:52;;;;;;;2.83;2.53;;;11.90;99.90;;;;;;4994478;28;21041;-79
2024/02/07 12:58:21;;;;;;;2.00;1.90;;;11.80;99.90;;;;;;4992744;28;20515;-78
2024/02/07 13:00:59;;;;;;;2.80;2.30;;;11.80;99.90;;;;;;4993753;28;20458;-79
2024/02/07 13:03:27;;;;;;;3.33;2.07;;;11.70;99.90;;;;;;4994437;28;20474;-78
2024/02/07 13:05:56;;;;;;;2.67;2.57;;;11.50;99.90;;;;;;4993661;28;20538;-78
2024/02/07 13:08:25;;;;;;;2.40;2.20;;;11.50;99.90;;;;;;4985189;28;20442;-79
2024/02/07 13:10:54;;;;;;;2.10;2.00;;;11.50;99.90;;;;;;4976209;28;20470;-78
2024/02/07 13:13:22;;;;;;;3.20;2.20;;;11.40;99.90;;;;;;4994474;28;21267;-79
2024/02/07 13:15:51;;;;;;;2.00;1.90;;;11.40;99.90;;;;;;4992820;28;20461;-78
2024/02/07 13:18:19;;;;;;;3.00;2.80;;;11.40;99.90;;;;;;4996360;28;20552;-79
2024/02/07 13:20:47;;;;;;;2.30;2.20;;;11.40;99.90;;;;;;4995997;28;20452;-80
2024/02/07 13:23:16;;;;;;;2.60;2.40;;;11.30;99.90;;;;;;4993583;28;20474;-78
2024/02/07 13:25:46;;;;;;;2.87;2.43;;;11.30;99.90;;;;;;4994540;28;20504;-78
2024/02/07 13:28:15;;;;;;;2.80;2.40;;;11.30;99.90;;;;;;4997293;28;20446;-79
2024/02/07 13:30:44;;;;;;;2.30;2.20;;;11.30;99.90;;;;;;4989688;28;20580;-77
2024/02/07 13:33:12;;;;;;;2.00;1.90;;;11.20;99.90;;;;;;4995726;28;20458;-79
2024/02/07 13:35:40;;;;;;;2.43;2.23;;;11.20;99.90;;;;;;4993896;28;20474;-79
2024/02/07 13:38:09;;;;;;;2.40;2.30;;;11.20;99.90;;;;;;4996708;28;21131;-80
2024/02/07 13:40:58;;;;;;;2.60;2.50;;;11.10;99.90;;;;;;4993649;28;20577;-78
2024/02/07 13:43:26;;;;;;;2.13;2.00;;;11.20;99.90;;;;;;4992628;28;20462;-77
2024/02/07 13:45:54;;;;;;;2.70;2.50;;;11.00;99.90;;;;;;4991697;28;20486;-79
2024/02/07 13:48:28;;;;;;;2.13;2.03;;;11.00;99.90;;;;;;4999118;28;20456;-78
2024/02/07 13:50:59;;;;;;;2.40;2.20;;;11.10;99.90;;;;;;4996866;28;20519;-78
2024/02/07 13:53:28;;;;;;;3.00;1.97;;;11.10;99.90;;;;;;4998760;28;20516;-79
2024/02/07 13:55:57;;;;;;;2.17;1.97;;;11.10;99.90;;;;;;4998489;28;20524;-78
2024/02/07 13:58:26;;;;;;;2.07;1.87;;;11.10;99.90;;;;;;4995786;28;20488;-78
2024/02/07 14:00:54;;;;;;;2.50;2.30;;;11.20;99.90;;;;;;4998899;28;20458;-78
2024/02/07 14:03:23;;;;;;;2.40;2.20;;;11.20;99.90;;;;;;4998310;28;20550;-78
2024/02/07 14:05:53;;;;;;;2.93;2.13;;;11.20;99.90;;;;;;4997420;28;20485;-79
2024/02/07 14:08:21;;;;;;;1.87;1.77;;;11.20;99.90;;;;;;4996029;28;20454;-79
2024/02/07 14:10:50;;;;;;;2.60;2.40;;;11.20;99.90;;;;;;4994941;28;20467;-79
2024/02/07 14:13:20;;;;;;;2.23;2.13;;;11.20;99.90;;;;;;5000126;28;20460;-78